createdAt,value
2023-02-27T00:00:37.596Z,77.17
2023-02-27T00:01:37.489Z,77.07
2023-02-27T00:02:37.569Z,76.65
2023-02-27T00:03:37.583Z,76.65
2023-02-27T00:04:37.541Z,77.34
2023-02-27T00:05:37.505Z,76.72
2023-02-27T00:06:37.497Z,76.68
2023-02-27T00:07:37.478Z,75.74
2023-02-27T00:08:37.530Z,75.74
2023-02-27T00:09:37.472Z,75.88
2023-02-27T00:10:37.507Z,76.09
2023-02-27T00:11:37.480Z,75.67
2023-02-27T00:12:37.483Z,75.95
2023-02-27T00:13:37.421Z,75.67
2023-02-27T00:14:37.472Z,75.88
2023-02-27T00:15:37.422Z,76.89
2023-02-27T00:16:37.502Z,75.15
2023-02-27T00:17:37.495Z,75.46
2023-02-27T00:18:37.435Z,76.54
2023-02-27T00:19:37.443Z,76.54
2023-02-27T00:20:37.401Z,77.17
2023-02-27T00:21:38.205Z,76.75
2023-02-27T00:22:37.419Z,76.96
2023-02-27T00:23:37.381Z,76.96
2023-02-27T00:24:38.385Z,76.75
2023-02-27T00:25:37.410Z,77.38
2023-02-27T00:26:37.395Z,77.17
2023-02-27T00:27:37.351Z,77.03
2023-02-27T00:28:37.353Z,76.82
2023-02-27T00:29:37.348Z,76.72
2023-02-27T00:30:37.384Z,76.40
2023-02-27T00:31:37.395Z,76.51
2023-02-27T00:32:37.351Z,76.20
2023-02-27T00:33:37.327Z,76.40
2023-02-27T00:34:38.332Z,76.51
2023-02-27T00:35:37.349Z,76.68
2023-02-27T00:36:37.339Z,76.47
2023-02-27T00:37:37.335Z,75.63
2023-02-27T00:38:37.349Z,76.89
2023-02-27T00:39:37.284Z,75.78
2023-02-27T00:40:37.315Z,75.57
2023-02-27T00:41:37.309Z,75.46
2023-02-27T00:42:37.300Z,76.40
2023-02-27T00:43:37.291Z,76.40
2023-02-27T00:44:37.255Z,76.33
2023-02-27T00:45:37.288Z,76.86
2023-02-27T00:46:37.317Z,77.10
2023-02-27T00:47:37.301Z,77.62
2023-02-27T00:48:37.243Z,77.52
2023-02-27T00:49:37.231Z,77.62
2023-02-27T00:50:37.275Z,77.87
2023-02-27T00:51:37.297Z,78.67
2023-02-27T00:52:38.426Z,78.57
2023-02-27T00:53:37.213Z,78.05
2023-02-27T00:54:37.250Z,78.05
2023-02-27T00:55:37.262Z,78.25
2023-02-27T00:56:37.208Z,78.15
2023-02-27T00:57:37.243Z,77.83
2023-02-27T00:58:37.202Z,78.36
2023-02-27T00:59:37.239Z,77.73
2023-02-27T01:00:37.280Z,77.38
2023-02-27T01:01:37.208Z,77.66
2023-02-27T01:02:37.206Z,76.96
2023-02-27T01:03:37.200Z,76.86
2023-02-27T01:04:38.134Z,76.86
2023-02-27T01:05:37.150Z,77.17
2023-02-27T01:06:37.171Z,76.75
2023-02-27T01:07:37.230Z,77.28
2023-02-27T01:08:37.183Z,77.45
2023-02-27T01:09:37.230Z,77.31
2023-02-27T01:10:37.159Z,76.89
2023-02-27T01:11:37.189Z,76.68
2023-02-27T01:12:37.140Z,76.79
2023-02-27T01:13:37.143Z,76.37
2023-02-27T01:14:37.138Z,76.26
2023-02-27T01:15:37.160Z,75.71
2023-02-27T01:16:37.175Z,75.81
2023-02-27T01:17:37.196Z,75.81
2023-02-27T01:18:37.105Z,76.12
2023-02-27T01:19:37.101Z,75.92
2023-02-27T01:20:37.157Z,75.84
2023-02-27T01:21:37.147Z,76.12
2023-02-27T01:22:37.193Z,76.02
2023-02-27T01:23:37.121Z,76.12
2023-02-27T01:24:37.106Z,75.71
2023-02-27T01:25:37.784Z,75.81
2023-02-27T01:26:37.054Z,75.57
2023-02-27T01:27:37.047Z,75.46
2023-02-27T01:28:37.130Z,75.29
2023-02-27T01:29:37.054Z,75.26
2023-02-27T01:30:37.047Z,75.15
2023-02-27T01:31:37.110Z,75.26
2023-02-27T01:32:37.046Z,75.67
2023-02-27T01:33:37.019Z,75.04
2023-02-27T01:34:37.044Z,75.15
2023-02-27T01:35:37.009Z,75.15
2023-02-27T01:36:37.022Z,75.15
2023-02-27T01:37:37.039Z,75.15
2023-02-27T01:38:37.005Z,75.32
2023-02-27T01:39:36.997Z,75.43
2023-02-27T01:40:36.999Z,75.26
2023-02-27T01:41:37.035Z,74.80
2023-02-27T01:42:37.053Z,75.26
2023-02-27T01:43:36.985Z,75.15
2023-02-27T01:44:36.989Z,75.46
2023-02-27T01:45:37.047Z,75.01
2023-02-27T01:46:36.988Z,76.16
2023-02-27T01:47:36.941Z,75.01
2023-02-27T01:48:36.966Z,77.00
2023-02-27T01:49:36.937Z,76.51
2023-02-27T01:50:37.941Z,76.40
2023-02-27T01:51:36.961Z,76.72
2023-02-27T01:52:36.972Z,76.40
2023-02-27T01:53:37.734Z,77.03
2023-02-27T01:54:36.915Z,76.30
2023-02-27T01:55:36.895Z,76.51
2023-02-27T01:56:37.637Z,76.82
2023-02-27T01:57:36.962Z,76.23
2023-02-27T01:58:36.911Z,76.86
2023-02-27T01:59:37.631Z,76.96
2023-02-27T02:00:36.893Z,77.07
2023-02-27T02:01:36.975Z,77.17
2023-02-27T02:02:36.988Z,77.07
2023-02-27T02:03:36.906Z,77.52
2023-02-27T02:04:36.856Z,77.38
2023-02-27T02:05:36.871Z,77.45
2023-02-27T02:06:36.852Z,76.96
2023-02-27T02:07:36.833Z,76.96
2023-02-27T02:08:36.879Z,77.38
2023-02-27T02:09:36.822Z,77.34
2023-02-27T02:10:36.831Z,77.03
2023-02-27T02:11:36.832Z,77.59
2023-02-27T02:12:36.809Z,76.93
2023-02-27T02:13:36.830Z,77.07
2023-02-27T02:14:36.802Z,76.54
2023-02-27T02:15:36.812Z,76.75
2023-02-27T02:16:36.828Z,76.89
2023-02-27T02:17:36.795Z,77.07
2023-02-27T02:18:36.842Z,77.07
2023-02-27T02:19:36.809Z,76.65
2023-02-27T02:20:36.777Z,77.48
2023-02-27T02:21:37.688Z,76.86
2023-02-27T02:22:36.770Z,76.75
2023-02-27T02:23:36.764Z,77.59
2023-02-27T02:24:36.782Z,77.38
2023-02-27T02:25:36.752Z,77.38
2023-02-27T02:26:36.759Z,77.48
2023-02-27T02:27:36.737Z,77.07
2023-02-27T02:28:36.737Z,76.75
2023-02-27T02:29:36.727Z,76.93
2023-02-27T02:30:36.857Z,76.96
2023-02-27T02:31:36.805Z,76.93
2023-02-27T02:32:36.721Z,76.72
2023-02-27T02:33:36.693Z,76.82
2023-02-27T02:34:36.688Z,76.61
2023-02-27T02:35:36.802Z,76.93
2023-02-27T02:36:36.709Z,76.82
2023-02-27T02:37:36.681Z,77.34
2023-02-27T02:38:36.690Z,76.40
2023-02-27T02:39:36.686Z,76.51
2023-02-27T02:40:36.680Z,76.37
2023-02-27T02:41:36.691Z,75.53
2023-02-27T02:42:36.685Z,75.84
2023-02-27T02:43:36.663Z,75.63
2023-02-27T02:44:36.666Z,75.78
2023-02-27T02:45:36.745Z,75.74
2023-02-27T02:46:36.638Z,75.78
2023-02-27T02:47:36.651Z,75.04
2023-02-27T02:48:36.647Z,75.74
2023-02-27T02:49:36.660Z,75.53
2023-02-27T02:50:37.182Z,76.16
2023-02-27T02:51:36.632Z,75.53
2023-02-27T02:52:36.646Z,76.06
2023-02-27T02:53:37.605Z,76.16
2023-02-27T02:54:37.594Z,76.20
2023-02-27T02:55:36.633Z,75.98
2023-02-27T02:56:36.619Z,75.98
2023-02-27T02:57:36.584Z,75.84
2023-02-27T02:58:36.579Z,75.57
2023-02-27T02:59:36.572Z,76.12
2023-02-27T03:00:36.569Z,76.51
2023-02-27T03:01:36.624Z,76.82
2023-02-27T03:02:36.565Z,77.48
2023-02-27T03:03:36.571Z,77.14
2023-02-27T03:04:36.639Z,76.40
2023-02-27T03:05:36.526Z,76.30
2023-02-27T03:06:36.564Z,76.75
2023-02-27T03:07:36.630Z,76.54
2023-02-27T03:08:36.540Z,77.14
2023-02-27T03:09:36.522Z,76.40
2023-02-27T03:10:36.552Z,76.40
2023-02-27T03:11:36.523Z,76.30
2023-02-27T03:12:36.543Z,76.09
2023-02-27T03:13:36.507Z,76.09
2023-02-27T03:14:36.526Z,76.09
2023-02-27T03:15:36.518Z,76.20
2023-02-27T03:16:36.497Z,76.33
2023-02-27T03:17:36.514Z,77.28
2023-02-27T03:18:36.480Z,77.24
2023-02-27T03:19:36.473Z,76.61
2023-02-27T03:20:36.553Z,76.75
2023-02-27T03:21:36.502Z,76.75
2023-02-27T03:22:36.462Z,77.17
2023-02-27T03:23:36.493Z,77.38
2023-02-27T03:24:36.468Z,76.75
2023-02-27T03:25:36.474Z,76.86
2023-02-27T03:26:36.447Z,76.65
2023-02-27T03:27:36.462Z,77.38
2023-02-27T03:28:36.446Z,76.75
2023-02-27T03:29:36.438Z,76.86
2023-02-27T03:30:36.483Z,77.20
2023-02-27T03:31:36.515Z,76.75
2023-02-27T03:32:36.456Z,77.48
2023-02-27T03:33:36.414Z,77.59
2023-02-27T03:34:36.424Z,76.75
2023-02-27T03:35:36.373Z,77.38
2023-02-27T03:36:36.377Z,77.38
2023-02-27T03:37:36.380Z,77.52
2023-02-27T03:38:36.374Z,77.38
2023-02-27T03:39:36.408Z,77.17
2023-02-27T03:40:36.389Z,77.17
2023-02-27T03:41:36.354Z,77.69
2023-02-27T03:42:36.360Z,76.96
2023-02-27T03:43:36.402Z,77.80
2023-02-27T03:44:36.346Z,77.34
2023-02-27T03:45:36.343Z,77.14
2023-02-27T03:46:36.362Z,76.51
2023-02-27T03:47:36.325Z,76.82
2023-02-27T03:48:37.353Z,77.14
2023-02-27T03:49:36.311Z,76.40
2023-02-27T03:50:36.297Z,76.20
2023-02-27T03:51:36.354Z,75.67
2023-02-27T03:52:36.291Z,75.67
2023-02-27T03:53:36.315Z,76.20
2023-02-27T03:54:36.345Z,76.54
2023-02-27T03:55:36.286Z,76.96
2023-02-27T03:56:36.286Z,76.51
2023-02-27T03:57:36.302Z,76.51
2023-02-27T03:58:36.287Z,75.78
2023-02-27T03:59:36.294Z,76.54
2023-02-27T04:00:36.290Z,76.33
2023-02-27T04:01:36.280Z,76.96
2023-02-27T04:02:36.424Z,76.82
2023-02-27T04:03:36.264Z,77.14
2023-02-27T04:04:36.244Z,76.72
2023-02-27T04:05:36.290Z,77.07
2023-02-27T04:06:36.231Z,76.75
2023-02-27T04:07:36.227Z,77.07
2023-02-27T04:08:36.279Z,76.72
2023-02-27T04:09:36.239Z,76.12
2023-02-27T04:10:36.264Z,75.98
2023-02-27T04:11:36.230Z,75.81
2023-02-27T04:12:36.203Z,75.81
2023-02-27T04:13:36.225Z,77.38
2023-02-27T04:14:36.221Z,76.75
2023-02-27T04:15:36.206Z,77.20
2023-02-27T04:16:36.206Z,77.62
2023-02-27T04:17:36.182Z,77.38
2023-02-27T04:18:36.177Z,77.59
2023-02-27T04:19:36.193Z,77.00
2023-02-27T04:20:36.158Z,77.83
2023-02-27T04:21:36.176Z,78.05
2023-02-27T04:22:36.147Z,78.05
2023-02-27T04:23:36.148Z,77.52
2023-02-27T04:24:36.166Z,78.36
2023-02-27T04:25:36.146Z,78.60
2023-02-27T04:26:36.140Z,79.23
2023-02-27T04:27:36.132Z,79.02
2023-02-27T04:28:36.129Z,79.58
2023-02-27T04:29:36.138Z,79.75
2023-02-27T04:30:36.118Z,79.65
2023-02-27T04:31:36.236Z,79.69
2023-02-27T04:32:36.275Z,80.67
2023-02-27T04:33:36.086Z,80.88
2023-02-27T04:34:36.115Z,80.94
2023-02-27T04:35:36.081Z,80.94
2023-02-27T04:36:36.113Z,80.53
2023-02-27T04:37:36.121Z,80.11
2023-02-27T04:38:36.097Z,80.21
2023-02-27T04:39:37.101Z,80.84
2023-02-27T04:40:36.112Z,80.94
2023-02-27T04:41:36.080Z,80.53
2023-02-27T04:42:36.052Z,80.32
2023-02-27T04:43:36.054Z,80.63
2023-02-27T04:44:36.063Z,80.63
2023-02-27T04:45:36.199Z,80.21
2023-02-27T04:46:36.033Z,80.53
2023-02-27T04:47:36.040Z,80.11
2023-02-27T04:48:36.031Z,80.28
2023-02-27T04:49:36.067Z,79.65
2023-02-27T04:50:36.100Z,79.23
2023-02-27T04:51:36.057Z,79.69
2023-02-27T04:52:36.011Z,79.79
2023-02-27T04:53:36.025Z,80.57
2023-02-27T04:54:35.997Z,80.67
2023-02-27T04:55:36.015Z,80.84
2023-02-27T04:56:35.984Z,80.84
2023-02-27T04:57:36.022Z,80.74
2023-02-27T04:58:35.967Z,80.63
2023-02-27T04:59:35.954Z,80.84
2023-02-27T05:00:35.964Z,80.67
2023-02-27T05:01:35.982Z,80.84
2023-02-27T05:02:36.171Z,80.60
2023-02-27T05:03:35.947Z,80.11
2023-02-27T05:04:35.980Z,80.28
2023-02-27T05:05:35.982Z,80.04
2023-02-27T05:06:35.926Z,79.09
2023-02-27T05:07:35.934Z,78.50
2023-02-27T05:08:35.927Z,79.13
2023-02-27T05:09:35.915Z,79.20
2023-02-27T05:10:35.928Z,78.39
2023-02-27T05:11:35.896Z,78.39
2023-02-27T05:12:35.911Z,78.60
2023-02-27T05:13:35.886Z,78.36
2023-02-27T05:14:35.889Z,77.94
2023-02-27T05:15:36.008Z,78.15
2023-02-27T05:16:35.935Z,78.67
2023-02-27T05:17:35.898Z,78.60
2023-02-27T05:18:35.873Z,78.78
2023-02-27T05:19:35.886Z,78.60
2023-02-27T05:20:35.864Z,78.67
2023-02-27T05:21:35.865Z,78.57
2023-02-27T05:22:35.873Z,78.15
2023-02-27T05:23:35.831Z,78.32
2023-02-27T05:24:35.854Z,77.38
2023-02-27T05:25:35.858Z,77.73
2023-02-27T05:26:35.847Z,78.25
2023-02-27T05:27:35.821Z,78.25
2023-02-27T05:28:35.825Z,77.45
2023-02-27T05:29:35.827Z,77.24
2023-02-27T05:30:35.794Z,77.14
2023-02-27T05:31:35.809Z,76.65
2023-02-27T05:32:35.917Z,77.34
2023-02-27T05:33:35.782Z,77.14
2023-02-27T05:34:35.797Z,75.98
2023-02-27T05:35:35.880Z,75.53
2023-02-27T05:36:35.767Z,75.67
2023-02-27T05:37:35.810Z,77.00
2023-02-27T05:38:35.765Z,76.20
2023-02-27T05:39:35.774Z,75.74
2023-02-27T05:40:35.741Z,75.67
2023-02-27T05:41:36.665Z,75.67
2023-02-27T05:42:35.760Z,75.98
2023-02-27T05:43:35.749Z,75.35
2023-02-27T05:44:35.841Z,76.61
2023-02-27T05:45:35.736Z,75.78
2023-02-27T05:46:35.726Z,75.78
2023-02-27T05:47:35.717Z,75.70
2023-02-27T05:48:35.754Z,76.44
2023-02-27T05:49:35.731Z,75.78
2023-02-27T05:50:35.668Z,75.67
2023-02-27T05:51:35.726Z,75.78
2023-02-27T05:52:35.753Z,75.46
2023-02-27T05:53:35.684Z,76.40
2023-02-27T05:54:35.752Z,76.61
2023-02-27T05:55:35.744Z,76.20
2023-02-27T05:56:35.693Z,75.88
2023-02-27T05:57:35.654Z,75.88
2023-02-27T05:58:35.713Z,75.88
2023-02-27T05:59:35.653Z,76.30
2023-02-27T06:00:35.669Z,74.94
2023-02-27T06:01:37.191Z,76.02
2023-02-27T06:02:35.665Z,76.33
2023-02-27T06:03:35.780Z,77.48
2023-02-27T06:04:35.622Z,77.07
2023-02-27T06:05:35.629Z,76.30
2023-02-27T06:06:35.636Z,76.12
2023-02-27T06:07:35.622Z,76.89
2023-02-27T06:08:35.617Z,77.62
2023-02-27T06:09:35.639Z,77.42
2023-02-27T06:10:35.565Z,77.69
2023-02-27T06:11:35.605Z,77.34
2023-02-27T06:12:35.593Z,77.62
2023-02-27T06:13:35.578Z,77.42
2023-02-27T06:14:35.563Z,76.44
2023-02-27T06:15:35.604Z,76.89
2023-02-27T06:16:35.574Z,77.91
2023-02-27T06:17:35.539Z,77.17
2023-02-27T06:18:35.546Z,76.96
2023-02-27T06:19:35.537Z,77.14
2023-02-27T06:20:35.615Z,76.96
2023-02-27T06:21:35.518Z,76.33
2023-02-27T06:22:35.528Z,76.65
2023-02-27T06:23:35.599Z,76.96
2023-02-27T06:24:35.514Z,76.96
2023-02-27T06:25:35.496Z,76.96
2023-02-27T06:26:35.524Z,77.00
2023-02-27T06:27:35.529Z,77.00
2023-02-27T06:28:35.512Z,77.00
2023-02-27T06:29:35.497Z,77.52
2023-02-27T06:30:35.532Z,77.42
2023-02-27T06:31:35.482Z,77.42
2023-02-27T06:32:35.481Z,77.94
2023-02-27T06:33:35.484Z,78.05
2023-02-27T06:34:35.470Z,77.83
2023-02-27T06:35:36.218Z,78.15
2023-02-27T06:36:35.496Z,78.11
2023-02-27T06:37:35.448Z,77.59
2023-02-27T06:38:35.444Z,76.86
2023-02-27T06:39:35.478Z,77.38
2023-02-27T06:40:35.455Z,77.17
2023-02-27T06:41:35.411Z,77.66
2023-02-27T06:42:35.409Z,76.82
2023-02-27T06:43:35.409Z,76.86
2023-02-27T06:44:35.430Z,76.51
2023-02-27T06:45:35.420Z,76.79
2023-02-27T06:46:35.513Z,77.20
2023-02-27T06:47:35.396Z,76.26
2023-02-27T06:48:35.405Z,76.06
2023-02-27T06:49:35.396Z,76.68
2023-02-27T06:50:35.383Z,76.06
2023-02-27T06:51:35.356Z,75.92
2023-02-27T06:52:35.339Z,75.60
2023-02-27T06:53:35.370Z,75.71
2023-02-27T06:54:35.338Z,75.49
2023-02-27T06:55:35.332Z,75.15
2023-02-27T06:56:35.355Z,75.36
2023-02-27T06:57:35.358Z,74.98
2023-02-27T06:58:35.319Z,75.01
2023-02-27T06:59:35.305Z,75.71
2023-02-27T07:00:35.334Z,75.60
2023-02-27T07:01:35.338Z,75.49
2023-02-27T07:02:35.301Z,75.26
2023-02-27T07:03:35.334Z,75.26
2023-02-27T07:04:35.311Z,74.98
2023-02-27T07:05:35.292Z,75.15
2023-02-27T07:07:33.798Z,75.15
2023-02-27T07:07:37.849Z,74.94
2023-02-27T07:08:36.279Z,75.26
2023-02-27T07:09:35.260Z,74.73
2023-02-27T07:10:35.260Z,74.98
2023-02-27T07:11:35.241Z,76.09
2023-02-27T07:12:35.281Z,74.87
2023-02-27T07:13:35.250Z,74.84
2023-02-27T07:14:35.232Z,73.00
2023-02-27T07:15:35.302Z,72.30
2023-02-27T07:16:35.238Z,70.81
2023-02-27T07:17:35.220Z,70.36
2023-02-27T07:18:35.208Z,69.12
2023-02-27T07:19:35.224Z,68.56
2023-02-27T07:20:35.228Z,67.12
2023-02-27T07:21:35.205Z,63.50
2023-02-27T07:22:35.211Z,62.35
2023-02-27T07:23:35.198Z,59.26
2023-02-27T07:24:35.201Z,57.60
2023-02-27T07:25:35.183Z,57.32
2023-02-27T07:26:35.172Z,55.26
2023-02-27T07:27:35.192Z,55.59
2023-02-27T07:28:35.189Z,53.14
2023-02-27T07:29:35.198Z,51.24
2023-02-27T07:30:35.148Z,51.30
2023-02-27T07:31:35.182Z,49.40
2023-02-27T07:32:35.125Z,48.17
2023-02-27T07:33:36.131Z,49.98
2023-02-27T07:34:35.153Z,52.76
2023-02-27T07:35:35.151Z,52.60
2023-02-27T07:36:35.103Z,53.96
2023-02-27T07:37:35.113Z,52.86
2023-02-27T07:38:35.094Z,51.50
2023-02-27T07:39:35.089Z,51.04
2023-02-27T07:40:35.114Z,50.52
2023-02-27T07:41:35.106Z,49.38
2023-02-27T07:42:35.146Z,47.63
2023-02-27T07:43:35.080Z,45.18
2023-02-27T07:44:35.074Z,44.10
2023-02-27T07:45:35.061Z,43.24
2023-02-27T07:46:35.150Z,41.06
2023-02-27T07:47:35.061Z,39.60
2023-02-27T07:48:35.073Z,40.03
2023-02-27T07:49:35.033Z,40.31
2023-02-27T07:50:35.057Z,39.36
2023-02-27T07:51:35.077Z,40.36
2023-02-27T07:52:35.035Z,38.57
2023-02-27T07:53:35.019Z,37.23
2023-02-27T07:54:35.708Z,39.06
2023-02-27T07:55:34.997Z,37.90
2023-02-27T07:56:35.010Z,37.49
2023-02-27T07:57:35.040Z,37.46
2023-02-27T07:58:34.985Z,36.59
2023-02-27T07:59:34.998Z,35.33
2023-02-27T08:00:34.986Z,35.51
2023-02-27T08:01:34.965Z,35.09
2023-02-27T08:02:35.008Z,34.00
2023-02-27T08:03:34.968Z,35.58
2023-02-27T08:04:34.996Z,35.38
2023-02-27T08:05:34.954Z,35.39
2023-02-27T08:06:34.934Z,34.92
2023-02-27T08:07:34.922Z,36.97
2023-02-27T08:08:34.951Z,38.07
2023-02-27T08:09:34.901Z,39.82
2023-02-27T08:10:34.908Z,39.84
2023-02-27T08:11:34.908Z,41.42
2023-02-27T08:12:34.905Z,40.81
2023-02-27T08:14:02.080Z,42.91
2023-02-27T08:14:36.887Z,41.06
2023-02-27T08:15:34.891Z,41.77
2023-02-27T08:16:34.895Z,42.49
2023-02-27T08:17:34.885Z,43.44
2023-02-27T08:18:35.105Z,45.51
2023-02-27T08:19:35.870Z,47.34
2023-02-27T08:20:34.858Z,45.65
2023-02-27T08:21:34.907Z,43.41
2023-02-27T08:22:34.885Z,41.47
2023-02-27T08:23:34.907Z,43.37
2023-02-27T08:24:34.907Z,43.77
2023-02-27T08:25:34.849Z,43.91
2023-02-27T08:26:34.875Z,46.22
2023-02-27T08:27:34.813Z,47.42
2023-02-27T08:28:34.828Z,47.61
2023-02-27T08:29:34.850Z,47.28
2023-02-27T08:30:34.813Z,47.33
2023-02-27T08:31:34.783Z,48.04
2023-02-27T08:32:34.841Z,46.27
2023-02-27T08:33:34.776Z,43.32
2023-02-27T08:34:34.769Z,42.94
2023-02-27T08:35:34.817Z,43.98
2023-02-27T08:36:35.741Z,47.27
2023-02-27T08:37:34.760Z,48.79
2023-02-27T08:38:34.751Z,47.63
2023-02-27T08:39:34.731Z,46.30
2023-02-27T08:40:34.731Z,48.10
2023-02-27T08:41:34.778Z,45.35
2023-02-27T08:42:34.694Z,44.65
2023-02-27T08:43:34.705Z,44.10
2023-02-27T08:44:34.689Z,45.17
2023-02-27T08:45:34.724Z,45.41
2023-02-27T08:46:34.709Z,43.96
2023-02-27T08:47:34.677Z,45.45
2023-02-27T08:48:34.681Z,45.53
2023-02-27T08:49:34.687Z,45.57
2023-02-27T08:50:34.655Z,44.76
2023-02-27T08:51:35.662Z,42.59
2023-02-27T08:52:34.679Z,43.85
2023-02-27T08:53:34.668Z,42.67
2023-02-27T08:54:34.697Z,44.04
2023-02-27T08:55:34.634Z,43.94
2023-02-27T08:56:34.689Z,43.43
2023-02-27T08:57:34.629Z,44.26
2023-02-27T08:58:34.606Z,43.61
2023-02-27T08:59:34.595Z,43.77
2023-02-27T09:00:34.655Z,44.04
2023-02-27T09:01:34.772Z,43.73
2023-02-27T09:02:34.598Z,41.43
2023-02-27T09:03:34.634Z,38.47
2023-02-27T09:04:34.556Z,37.37
2023-02-27T09:05:34.559Z,36.95
2023-02-27T09:06:34.552Z,37.05
2023-02-27T09:07:34.600Z,37.70
2023-02-27T09:08:34.562Z,36.61
2023-02-27T09:09:34.518Z,36.38
2023-02-27T09:10:34.563Z,38.85
2023-02-27T09:11:35.341Z,39.94
2023-02-27T09:12:34.510Z,42.49
2023-02-27T09:13:34.493Z,41.31
2023-02-27T09:14:34.520Z,39.96
2023-02-27T09:15:34.479Z,41.20
2023-02-27T09:16:34.547Z,41.89
2023-02-27T09:17:34.513Z,39.90
2023-02-27T09:18:34.477Z,40.58
2023-02-27T09:19:34.489Z,39.85
2023-02-27T09:20:34.457Z,37.51
2023-02-27T09:21:34.451Z,37.04
2023-02-27T09:22:34.510Z,36.82
2023-02-27T09:23:34.427Z,39.29
2023-02-27T09:24:34.455Z,40.14
2023-02-27T09:25:34.505Z,41.39
2023-02-27T09:26:43.665Z,40.96
2023-02-27T09:27:36.418Z,39.90
2023-02-27T09:28:34.501Z,39.23
2023-02-27T09:29:34.394Z,42.18
2023-02-27T09:30:34.525Z,43.55
2023-02-27T09:31:34.798Z,42.38
2023-02-27T09:32:34.519Z,43.76
2023-02-27T09:33:34.366Z,42.85
2023-02-27T09:34:34.412Z,42.82
2023-02-27T09:35:34.392Z,40.98
2023-02-27T09:36:34.379Z,39.90
2023-02-27T09:37:34.345Z,39.48
2023-02-27T09:38:34.338Z,41.20
2023-02-27T09:39:34.345Z,40.51
2023-02-27T09:40:34.347Z,41.73
2023-02-27T09:41:34.336Z,42.61
2023-02-27T09:42:34.315Z,40.27
2023-02-27T09:43:34.351Z,39.94
2023-02-27T09:44:45.613Z,41.14
2023-02-27T09:45:36.342Z,42.41
2023-02-27T09:46:34.285Z,44.04
2023-02-27T09:47:34.267Z,44.78
2023-02-27T09:48:34.290Z,44.08
2023-02-27T09:49:34.269Z,44.70
2023-02-27T09:50:34.250Z,44.51
2023-02-27T09:51:34.303Z,43.35
2023-02-27T09:52:34.259Z,40.23
2023-02-27T09:53:34.271Z,40.35
2023-02-27T09:54:34.317Z,41.53
2023-02-27T09:55:34.228Z,42.50
2023-02-27T09:56:34.242Z,44.08
2023-02-27T09:57:34.239Z,44.02
2023-02-27T09:58:34.225Z,42.97
2023-02-27T09:59:34.230Z,41.66
2023-02-27T10:00:34.260Z,41.12
2023-02-27T10:01:34.231Z,42.04
2023-02-27T10:02:34.276Z,41.04
2023-02-27T10:03:34.382Z,44.29
2023-02-27T10:04:34.193Z,45.12
2023-02-27T10:05:34.175Z,44.35
2023-02-27T10:06:34.200Z,42.91
2023-02-27T10:07:34.173Z,42.41
2023-02-27T10:08:35.128Z,42.97
2023-02-27T10:09:34.134Z,41.28
2023-02-27T10:10:34.131Z,41.43
2023-02-27T10:11:34.132Z,39.09
2023-02-27T10:12:34.145Z,40.74
2023-02-27T10:13:34.104Z,40.94
2023-02-27T10:14:34.108Z,40.35
2023-02-27T10:15:34.116Z,40.55
2023-02-27T10:16:34.126Z,40.67
2023-02-27T10:17:34.103Z,41.00
2023-02-27T10:18:34.066Z,41.49
2023-02-27T10:19:34.073Z,40.33
2023-02-27T10:20:34.113Z,39.56
2023-02-27T10:21:34.276Z,38.36
2023-02-27T10:22:34.068Z,38.22
2023-02-27T10:23:34.052Z,39.80
2023-02-27T10:24:34.049Z,39.07
2023-02-27T10:25:34.024Z,39.17
2023-02-27T10:26:34.075Z,39.51
2023-02-27T10:27:34.018Z,39.80
2023-02-27T10:28:34.000Z,39.95
2023-02-27T10:29:34.011Z,38.12
2023-02-27T10:30:35.111Z,36.88
2023-02-27T10:31:35.152Z,36.30
2023-02-27T10:32:34.010Z,34.50
2023-02-27T10:33:33.981Z,34.31
2023-02-27T10:34:34.031Z,35.68
2023-02-27T10:35:33.999Z,36.17
2023-02-27T10:36:34.875Z,37.21
2023-02-27T10:37:34.989Z,36.87
2023-02-27T10:38:33.952Z,38.48
2023-02-27T10:39:33.953Z,38.72
2023-02-27T10:40:33.941Z,38.26
2023-02-27T10:41:33.942Z,37.73
2023-02-27T10:42:34.682Z,37.32
2023-02-27T10:43:33.978Z,35.70
2023-02-27T10:44:34.525Z,35.43
2023-02-27T10:45:33.906Z,34.14
2023-02-27T10:46:33.936Z,36.38
2023-02-27T10:47:33.910Z,36.21
2023-02-27T10:48:33.927Z,36.66
2023-02-27T10:49:33.891Z,36.76
2023-02-27T10:50:33.878Z,34.34
2023-02-27T10:51:33.882Z,33.79
2023-02-27T10:52:33.884Z,34.82
2023-02-27T10:53:33.858Z,35.42
2023-02-27T10:54:33.846Z,35.44
2023-02-27T10:55:33.854Z,35.36
2023-02-27T10:56:33.842Z,34.25
2023-02-27T10:57:33.840Z,34.17
2023-02-27T10:58:34.871Z,37.07
2023-02-27T10:59:34.823Z,36.87
2023-02-27T11:00:34.675Z,38.62
2023-02-27T11:01:33.883Z,36.65
2023-02-27T11:02:33.797Z,37.08
2023-02-27T11:03:33.897Z,35.82
2023-02-27T11:04:33.887Z,35.64
2023-02-27T11:05:33.825Z,35.44
2023-02-27T11:06:33.766Z,37.45
2023-02-27T11:07:33.808Z,37.24
2023-02-27T11:08:33.796Z,36.69
2023-02-27T11:09:33.779Z,35.77
2023-02-27T11:10:34.677Z,35.92
2023-02-27T11:11:33.756Z,34.78
2023-02-27T11:12:33.726Z,36.04
2023-02-27T11:13:33.759Z,35.31
2023-02-27T11:14:33.726Z,36.10
2023-02-27T11:15:33.829Z,36.39
2023-02-27T11:16:33.701Z,37.07
2023-02-27T11:17:33.685Z,35.73
2023-02-27T11:18:33.702Z,37.13
2023-02-27T11:19:33.676Z,35.36
2023-02-27T11:20:33.691Z,34.72
2023-02-27T11:21:33.683Z,34.13
2023-02-27T11:22:33.685Z,33.37
2023-02-27T11:23:33.659Z,31.00
2023-02-27T11:24:34.683Z,33.12
2023-02-27T11:25:33.661Z,34.18
2023-02-27T11:26:33.682Z,33.00
2023-02-27T11:27:33.635Z,32.85
2023-02-27T11:28:33.840Z,31.82
2023-02-27T11:29:33.664Z,31.48
2023-02-27T11:30:33.634Z,31.24
2023-02-27T11:31:33.711Z,29.82
2023-02-27T11:32:33.617Z,29.49
2023-02-27T11:33:33.612Z,30.38
2023-02-27T11:34:33.662Z,35.41
2023-02-27T11:35:33.653Z,35.48
2023-02-27T11:36:33.588Z,32.23
2023-02-27T11:37:33.606Z,33.23
2023-02-27T11:38:33.583Z,35.71
2023-02-27T11:39:33.677Z,40.00
2023-02-27T11:40:33.655Z,40.17
2023-02-27T11:41:33.575Z,38.56
2023-02-27T11:42:33.595Z,36.38
2023-02-27T11:43:33.561Z,36.29
2023-02-27T11:44:49.780Z,39.85
2023-02-27T11:46:21.487Z,40.49
2023-02-27T11:46:47.544Z,40.00
2023-02-27T11:47:34.706Z,40.66
2023-02-27T11:48:33.586Z,37.87
2023-02-27T11:49:33.519Z,36.63
2023-02-27T11:50:34.327Z,35.26
2023-02-27T11:51:33.505Z,33.58
2023-02-27T11:52:33.482Z,32.97
2023-02-27T11:53:34.202Z,31.43
2023-02-27T11:54:33.523Z,32.58
2023-02-27T11:55:33.484Z,32.75
2023-02-27T11:56:35.973Z,31.04
2023-02-27T11:57:35.748Z,30.99
2023-02-27T11:58:33.532Z,32.76
2023-02-27T11:59:33.471Z,33.54
2023-02-27T12:00:33.439Z,35.82
2023-02-27T12:01:33.505Z,39.97
2023-02-27T12:02:33.509Z,41.81
2023-02-27T12:03:33.499Z,40.99
2023-02-27T12:04:33.472Z,41.24
2023-02-27T12:05:33.444Z,44.02
2023-02-27T12:06:33.488Z,42.58
2023-02-27T12:07:33.433Z,40.65
2023-02-27T12:08:33.401Z,41.71
2023-02-27T12:09:33.442Z,42.57
2023-02-27T12:10:33.389Z,42.75
2023-02-27T12:11:33.410Z,42.42
2023-02-27T12:12:33.438Z,40.17
2023-02-27T12:13:33.361Z,39.62
2023-02-27T12:14:33.441Z,40.46
2023-02-27T12:15:33.376Z,38.64
2023-02-27T12:16:33.785Z,37.02
2023-02-27T12:17:33.362Z,35.58
2023-02-27T12:18:33.382Z,37.04
2023-02-27T12:19:33.353Z,36.46
2023-02-27T12:20:33.382Z,40.31
2023-02-27T12:21:34.358Z,42.19
2023-02-27T12:22:33.351Z,44.10
2023-02-27T12:23:33.344Z,43.71
2023-02-27T12:24:33.344Z,44.49
2023-02-27T12:25:34.314Z,44.96
2023-02-27T12:26:33.326Z,46.28
2023-02-27T12:27:33.285Z,44.35
2023-02-27T12:28:33.291Z,43.91
2023-02-27T12:29:33.280Z,43.61
2023-02-27T12:30:33.258Z,44.80
2023-02-27T12:31:33.344Z,45.64
2023-02-27T12:32:33.279Z,44.59
2023-02-27T12:33:34.372Z,46.11
2023-02-27T12:34:33.245Z,43.82
2023-02-27T12:35:33.299Z,39.59
2023-02-27T12:36:33.262Z,39.44
2023-02-27T12:37:33.199Z,40.05
2023-02-27T12:38:34.503Z,38.45
2023-02-27T12:39:33.329Z,39.79
2023-02-27T12:40:33.189Z,39.30
2023-02-27T12:41:33.240Z,39.17
2023-02-27T12:42:33.206Z,36.92
2023-02-27T12:43:33.217Z,37.19
2023-02-27T12:44:33.187Z,36.95
2023-02-27T12:45:34.132Z,37.21
2023-02-27T12:46:33.152Z,38.11
2023-02-27T12:47:33.171Z,37.36
2023-02-27T12:48:33.167Z,36.44
2023-02-27T12:49:33.122Z,35.93
2023-02-27T12:50:33.125Z,34.26
2023-02-27T12:51:33.222Z,35.75
2023-02-27T12:52:33.163Z,36.02